Terminal Aerodrome Forecast
Issued by NWS

Current Version | Previous Version | Text Only | Print | Product List | Glossary On
Versions: 1 2 3 4 5 6 7 8 9 10 11 12
000
FTUS45 KRIW 272338
TAFCOD
TAF
KCOD 272338Z 2800/2824 01008KT P6SM VCSH FEW070 SCT100
     FM280200 VRB10G20KT P6SM VCTS SCT080CB BKN120
     FM280800 28007KT P6SM VCSH FEW035 SCT080
     FM281600 02008KT P6SM FEW080 SCT110
     FM282000 02010G16KT P6SM VCTS SCT060CB BKN120
      AMD LTD TO CLD VIS AND WIND=

USA.gov is the U.S. government's official web portal to all federal, state and local government web resources and services.